»·PEaware :: N16566 KFUL-KFUL

N16566 :: KFUL-KFUL

FLIGHT INFORMATION

Flight Status: Arrived
Operator: Privately registered:
United States
More flights under this callsign
Pilot: Erik K. (18332)
Aircraft: PIPER PA-28R-201 ARROW
(P28R)
More flights by this aircraft type
Origin: KFUL Fullerton Mun
United States
Destination: KFUL Fullerton Mun
United States
More flights between these airports :: More routes between these airports
Route:
File this flight plan on PilotEdge
Remarks: PRACTICE APPROACHES
Altitude:
(Current/Filed)
3,000ft
Speed:
(Current/Filed)
143kts
Departed: 23-Jan-19 11:31 AM
Arrived: 23-Jan-19 12:18 PM
Distance/Time
Traveled:
0nm/0:47
Distance/Time
To Go:
Arrived

Flight Plot

Page will automatically refresh every two minutes.


Map Options




Map Legend


Flown Route
Filed Route
Departure Airport
Arrival Airport
Navaid (VOR, NDB)
Fix

Horizontal Profiles

Position Reports

Time Latitude Longitude Heading Altitude Ground
Speed
23-Jan-19 11:19 33.871162 -117.978177 259 92ft 0kts
23-Jan-19 11:20 33.871162 -117.978177 259 92ft 0kts
23-Jan-19 11:21 33.871165 -117.978298 283 92ft 0kts
23-Jan-19 11:22 33.871177 -117.978325 305 92ft 0kts
23-Jan-19 11:23 33.871181 -117.978329 310 92ft 0kts
23-Jan-19 11:24 33.871976 -117.977896 76 92ft 3kts
23-Jan-19 11:25 33.872376 -117.975887 77 95ft 11kts
23-Jan-19 11:26 33.872509 -117.975180 76 95ft 0kts
23-Jan-19 11:27 33.872509 -117.975180 76 95ft 0kts
23-Jan-19 11:28 33.872509 -117.975180 76 95ft 0kts
23-Jan-19 11:29 33.872930 -117.974907 306 95ft 5kts
23-Jan-19 11:30 33.870979 -117.985054 257 246ft 85kts
23-Jan-19 11:32 33.851307 -117.982798 139 1715ft 84kts
23-Jan-19 11:32 33.836366 -117.965540 147 2682ft 87kts
23-Jan-19 11:33 33.819636 -117.988212 256 3068ft 122kts
23-Jan-19 11:35 33.806269 -118.036511 226 3114ft 127kts
23-Jan-19 11:35 33.780852 -118.058296 216 3077ft 135kts
23-Jan-19 11:36 33.748576 -118.082489 216 3063ft 135kts
23-Jan-19 11:37 33.713375 -118.085133 163 3067ft 131kts
23-Jan-19 11:38 33.677244 -118.077453 190 2737ft 130kts
23-Jan-19 11:39 33.660885 -118.108113 312 2694ft 127kts
23-Jan-19 11:40 33.694934 -118.120929 346 2693ft 124kts
23-Jan-19 11:41 33.725661 -118.105234 47 2703ft 120kts
23-Jan-19 11:42 33.754409 -118.078751 33 2684ft 124kts
23-Jan-19 11:43 33.782540 -118.050907 31 2690ft 125kts
23-Jan-19 11:44 33.814149 -118.028738 30 2125ft 125kts
23-Jan-19 11:45 33.844181 -118.003542 40 1448ft 125kts
23-Jan-19 11:46 33.872709 -117.976707 41 858ft 127kts
23-Jan-19 11:47 33.869837 -117.947464 163 2070ft 104kts
23-Jan-19 11:48 33.841660 -117.933124 164 2516ft 110kts
23-Jan-19 11:49 33.811078 -117.926992 218 2761ft 126kts
23-Jan-19 11:50 33.805621 -117.966820 276 2805ft 129kts
23-Jan-19 11:51 33.797212 -118.010294 244 2678ft 131kts
23-Jan-19 11:52 33.782438 -118.052456 251 2594ft 131kts
23-Jan-19 11:53 33.756451 -118.059921 108 2620ft 129kts
23-Jan-19 11:54 33.764560 -118.021221 69 2852ft 118kts
23-Jan-19 11:55 33.781117 -117.990362 356 2829ft 118kts
23-Jan-19 11:56 33.782739 -118.024062 256 2752ft 121kts
23-Jan-19 11:57 33.782878 -118.064463 250 2693ft 124kts
23-Jan-19 11:58 33.761901 -118.056556 68 2569ft 118kts
23-Jan-19 11:59 33.769833 -118.019374 79 2627ft 115kts
23-Jan-19 12:00 33.789536 -118.006201 298 2575ft 118kts
23-Jan-19 12:01 33.786054 -118.046222 262 2600ft 115kts
23-Jan-19 12:02 33.763466 -118.072826 206 3090ft 121kts
23-Jan-19 12:03 33.733831 -118.098855 221 2954ft 132kts
23-Jan-19 12:04 33.705872 -118.125882 192 2975ft 131kts
23-Jan-19 12:05 33.670750 -118.117417 164 3007ft 128kts
23-Jan-19 12:06 33.643502 -118.133744 272 2983ft 127kts
23-Jan-19 12:07 33.669599 -118.146136 38 2638ft 134kts
23-Jan-19 12:08 33.697731 -118.117831 44 2512ft 126kts
23-Jan-19 12:09 33.724306 -118.093651 34 2724ft 113kts
23-Jan-19 12:10 33.752529 -118.075771 18 2848ft 114kts
23-Jan-19 12:11 33.781599 -118.056563 38 2851ft 120kts
23-Jan-19 12:12 33.808620 -118.031973 37 2449ft 119kts
23-Jan-19 12:13 33.837099 -118.011070 32 1866ft 114kts
23-Jan-19 12:14 33.858605 -117.985877 74 945ft 93kts
23-Jan-19 12:15 33.866659 -117.960208 6 660ft 82kts
23-Jan-19 12:16 33.872256 -117.978802 249 91ft 47kts
23-Jan-19 12:17 33.870943 -117.980856 135 90ft 8kts
23-Jan-19 12:18 33.870821 -117.979887 78 91ft 0kts

Navigation Log

Ident Type
Flight plan parsing failed, navigation log unavailable